createdAt,value
2022-11-25T00:01:48.144Z,1.30
2022-11-25T00:04:17.722Z,1.45
2022-11-25T00:06:47.296Z,1.38
2022-11-25T00:09:17.306Z,1.30
2022-11-25T00:11:46.921Z,1.40
2022-11-25T00:14:17.465Z,1.27
2022-11-25T00:16:48.820Z,1.42
2022-11-25T00:19:19.280Z,1.35
2022-11-25T00:21:49.414Z,1.35
2022-11-25T00:24:19.828Z,1.50
2022-11-25T00:26:50.322Z,1.83
2022-11-25T00:29:20.381Z,1.52
2022-11-25T00:31:50.099Z,1.50
2022-11-25T00:34:20.350Z,1.48
2022-11-25T00:36:50.428Z,1.65
2022-11-25T00:39:21.248Z,1.55
2022-11-25T00:42:09.510Z,1.52
2022-11-25T00:44:42.581Z,1.80
2022-11-25T00:47:13.271Z,1.88
2022-11-25T00:49:45.986Z,1.55
2022-11-25T00:52:17.871Z,1.48
2022-11-25T00:54:48.470Z,1.52
2022-11-25T00:57:19.034Z,1.83
2022-11-25T00:59:49.338Z,1.63
2022-11-25T01:02:19.680Z,2.30
2022-11-25T01:04:49.727Z,1.70
2022-11-25T01:07:20.198Z,1.75
2022-11-25T01:09:50.590Z,1.77
2022-11-25T01:12:20.721Z,1.90
2022-11-25T01:14:53.845Z,2.22
2022-11-25T01:17:23.362Z,1.90
2022-11-25T01:19:56.411Z,2.03
2022-11-25T01:22:27.227Z,3.78
2022-11-25T01:24:56.898Z,4.40
2022-11-25T01:27:26.410Z,3.30
2022-11-25T01:29:56.514Z,3.20
2022-11-25T01:32:26.878Z,3.15
2022-11-25T01:34:57.067Z,3.55
2022-11-25T01:37:27.124Z,3.22
2022-11-25T01:39:57.282Z,2.60
2022-11-25T01:42:29.705Z,2.83
2022-11-25T01:45:18.509Z,3.03
2022-11-25T01:47:48.721Z,3.03
2022-11-25T01:50:19.992Z,3.05
2022-11-25T01:52:50.275Z,3.38
2022-11-25T01:55:25.622Z,3.28
2022-11-25T01:58:21.101Z,3.10
2022-11-25T02:00:54.077Z,3.40
2022-11-25T02:03:25.788Z,3.30
2022-11-25T02:06:01.621Z,3.55
2022-11-25T02:08:33.586Z,3.13
2022-11-25T02:11:05.888Z,3.85
2022-11-25T02:13:36.041Z,3.97
2022-11-25T02:16:06.324Z,3.75
2022-11-25T02:18:36.065Z,4.07
2022-11-25T02:21:08.441Z,3.55
2022-11-25T02:23:46.923Z,3.80
2022-11-25T02:26:16.915Z,3.78
2022-11-25T02:28:47.087Z,4.07
2022-11-25T02:31:24.569Z,3.70
2022-11-25T02:33:54.699Z,3.85
2022-11-25T02:36:25.147Z,4.18
2022-11-25T02:38:56.194Z,3.72
2022-11-25T02:41:32.739Z,3.90
2022-11-25T02:44:06.393Z,3.83
2022-11-25T02:46:36.588Z,3.65
2022-11-25T02:49:09.372Z,3.67
2022-11-25T02:51:41.711Z,3.30
2022-11-25T02:54:12.580Z,3.40
2022-11-25T02:56:42.771Z,3.38
2022-11-25T02:59:12.626Z,3.00
2022-11-25T03:01:43.664Z,3.38
2022-11-25T03:04:13.869Z,3.17
2022-11-25T03:06:44.051Z,3.15
2022-11-25T03:09:16.738Z,3.33
2022-11-25T03:12:05.703Z,3.40
2022-11-25T03:14:36.123Z,3.83
2022-11-25T03:17:07.711Z,3.25
2022-11-25T03:19:37.928Z,3.17
2022-11-25T03:22:08.419Z,3.40
2022-11-25T03:24:38.822Z,3.45
2022-11-25T03:27:09.082Z,3.42
2022-11-25T03:29:41.816Z,2.88
2022-11-25T03:32:11.653Z,3.85
2022-11-25T03:34:42.336Z,3.53
2022-11-25T03:37:12.370Z,3.15
2022-11-25T03:39:43.122Z,3.30
2022-11-25T03:42:14.805Z,3.22
2022-11-25T03:44:45.585Z,3.33
2022-11-25T03:47:19.158Z,3.13
2022-11-25T03:49:49.292Z,3.55
2022-11-25T03:52:19.322Z,3.50
2022-11-25T03:54:49.542Z,3.10
2022-11-25T03:57:24.612Z,3.55
2022-11-25T03:59:54.839Z,3.10
2022-11-25T04:02:25.103Z,3.50
2022-11-25T04:04:54.762Z,4.00
2022-11-25T04:07:25.171Z,3.95
2022-11-25T04:09:57.006Z,3.70
2022-11-25T04:12:47.499Z,3.22
2022-11-25T04:15:32.166Z,3.65
2022-11-25T04:18:02.541Z,3.63
2022-11-25T04:20:34.336Z,4.10
2022-11-25T04:23:10.761Z,4.35
2022-11-25T04:26:00.513Z,4.18
2022-11-25T04:28:41.181Z,4.05
2022-11-25T04:31:11.591Z,3.72
2022-11-25T04:36:18.512Z,3.80
2022-11-25T04:38:49.213Z,3.40
2022-11-25T04:41:20.858Z,3.90
2022-11-25T04:43:52.328Z,3.72
2022-11-25T04:46:24.052Z,3.58
2022-11-25T04:48:54.467Z,3.60
2022-11-25T04:51:25.310Z,3.50
2022-11-25T04:54:01.987Z,4.05
2022-11-25T04:56:35.014Z,3.17
2022-11-25T04:59:23.272Z,3.20
2022-11-25T05:01:53.444Z,3.53
2022-11-25T05:04:31.016Z,3.10
2022-11-25T05:07:01.174Z,2.80
2022-11-25T05:09:31.202Z,2.90
2022-11-25T05:12:19.125Z,2.67
2022-11-25T05:14:49.270Z,2.58
2022-11-25T05:17:23.541Z,3.03
2022-11-25T05:19:53.787Z,2.25
2022-11-25T05:22:27.510Z,2.58
2022-11-25T05:27:27.185Z,2.45
2022-11-25T05:29:59.447Z,2.20
2022-11-25T05:32:29.044Z,2.45
2022-11-25T05:35:01.384Z,2.50
2022-11-25T05:37:31.471Z,2.17
2022-11-25T05:40:07.583Z,1.92
2022-11-25T05:42:37.709Z,2.28
2022-11-25T05:45:11.146Z,2.50
2022-11-25T05:47:42.380Z,2.25
2022-11-25T05:50:13.515Z,2.10
2022-11-25T05:52:43.885Z,2.33
2022-11-25T05:55:15.225Z,2.53
2022-11-25T05:57:47.600Z,2.15
2022-11-25T06:00:22.125Z,2.08
2022-11-25T06:02:56.669Z,2.20
2022-11-25T06:05:27.306Z,2.17
2022-11-25T06:07:57.378Z,2.40
2022-11-25T06:10:28.240Z,2.60
2022-11-25T06:12:58.858Z,3.00
2022-11-25T06:15:29.334Z,2.92
2022-11-25T06:18:01.276Z,2.97
2022-11-25T06:20:33.396Z,3.03
2022-11-25T06:23:03.490Z,3.30
2022-11-25T06:25:38.294Z,4.32
2022-11-25T06:28:13.311Z,3.90
2022-11-25T06:30:47.428Z,5.00
2022-11-25T06:33:23.917Z,5.07
2022-11-25T06:35:54.019Z,5.25
2022-11-25T06:38:24.168Z,5.60
2022-11-25T06:40:56.382Z,6.30
2022-11-25T06:43:28.617Z,6.55
2022-11-25T06:46:03.607Z,7.13
2022-11-25T06:48:33.308Z,7.25
2022-11-25T06:51:04.585Z,10.35
2022-11-25T06:53:34.270Z,11.57
2022-11-25T06:56:05.319Z,11.13
2022-11-25T06:58:36.424Z,11.25
2022-11-25T07:01:12.358Z,12.32
2022-11-25T07:03:43.860Z,13.50
2022-11-25T07:06:15.197Z,13.07
2022-11-25T07:08:45.221Z,12.90
2022-11-25T07:11:16.645Z,13.27
2022-11-25T07:13:47.830Z,15.43
2022-11-25T07:16:17.821Z,15.73
2022-11-25T07:18:47.555Z,14.25
2022-11-25T07:21:19.149Z,16.00
2022-11-25T07:23:50.144Z,14.98
2022-11-25T07:26:22.712Z,15.55
2022-11-25T07:28:53.142Z,15.95
2022-11-25T07:31:27.490Z,16.27
2022-11-25T07:34:00.777Z,15.82
2022-11-25T07:36:30.846Z,15.15
2022-11-25T07:39:01.569Z,15.82
2022-11-25T07:41:31.430Z,16.00
2022-11-25T07:44:02.987Z,15.80
2022-11-25T07:46:42.067Z,15.82
2022-11-25T07:49:13.167Z,16.15
2022-11-25T07:51:49.602Z,17.83
2022-11-25T07:54:20.669Z,16.85
2022-11-25T07:56:53.996Z,17.77
2022-11-25T07:59:23.903Z,18.85
2022-11-25T08:01:54.059Z,19.15
2022-11-25T08:04:23.657Z,20.08
2022-11-25T08:06:54.065Z,19.92
2022-11-25T08:09:24.367Z,20.13
2022-11-25T08:11:55.191Z,20.88
2022-11-25T08:14:27.069Z,20.75
2022-11-25T08:16:56.670Z,21.25
2022-11-25T08:19:31.249Z,20.73
2022-11-25T08:22:01.898Z,20.90
2022-11-25T08:24:32.197Z,22.20
2022-11-25T08:27:03.070Z,21.98
2022-11-25T08:29:33.192Z,22.55
2022-11-25T08:32:06.257Z,22.15
2022-11-25T08:34:40.322Z,22.65
2022-11-25T08:37:12.288Z,22.65
2022-11-25T08:39:52.588Z,22.77
2022-11-25T08:42:23.345Z,23.58
2022-11-25T08:44:54.724Z,23.45
2022-11-25T08:47:25.134Z,23.33
2022-11-25T08:49:59.535Z,23.67
2022-11-25T08:52:53.498Z,23.73
2022-11-25T08:55:23.128Z,23.17
2022-11-25T08:57:53.060Z,23.65
2022-11-25T09:00:23.325Z,22.58
2022-11-25T09:02:57.600Z,22.25
2022-11-25T09:05:39.660Z,23.55
2022-11-25T09:08:26.717Z,22.30
2022-11-25T09:10:57.051Z,22.63
2022-11-25T09:13:27.103Z,22.45
2022-11-25T09:15:57.386Z,22.65
2022-11-25T09:18:27.652Z,21.88
2022-11-25T09:20:57.461Z,21.48
2022-11-25T09:23:28.223Z,21.63
2022-11-25T09:25:58.504Z,20.80
2022-11-25T09:28:28.160Z,19.88
2022-11-25T09:30:57.843Z,19.55
2022-11-25T09:33:27.836Z,19.30
2022-11-25T09:35:57.584Z,18.55
2022-11-25T09:38:29.871Z,18.10
2022-11-25T09:41:04.101Z,18.67
2022-11-25T09:44:11.383Z,19.73
2022-11-25T09:46:47.566Z,19.55
2022-11-25T09:49:19.989Z,18.63
2022-11-25T09:51:49.952Z,18.20
2022-11-25T09:54:42.229Z,18.30
2022-11-25T09:57:41.656Z,17.40
2022-11-25T10:00:14.876Z,17.55
2022-11-25T10:02:47.895Z,16.92
2022-11-25T10:05:22.047Z,18.17
2022-11-25T10:07:59.761Z,16.55
2022-11-25T10:10:30.706Z,16.13
2022-11-25T10:13:00.665Z,15.80
2022-11-25T10:15:37.678Z,15.63
2022-11-25T10:18:14.850Z,15.25
2022-11-25T10:20:45.134Z,15.10
2022-11-25T10:23:19.739Z,15.52
2022-11-25T10:25:53.552Z,15.43
2022-11-25T10:28:24.095Z,15.48
2022-11-25T10:30:56.699Z,14.15
2022-11-25T10:33:38.376Z,15.10
2022-11-25T10:36:08.703Z,14.18
2022-11-25T10:38:44.800Z,14.27
2022-11-25T10:41:18.261Z,13.98
2022-11-25T10:47:10.884Z,12.48
2022-11-25T10:49:25.855Z,12.18
2022-11-25T10:51:55.516Z,12.85
2022-11-25T10:54:27.845Z,12.25
2022-11-25T10:56:58.201Z,11.77
2022-11-25T10:59:31.449Z,11.90
2022-11-25T11:02:20.226Z,11.75
2022-11-25T11:05:08.891Z,11.13
2022-11-25T11:07:39.495Z,10.57
2022-11-25T11:10:18.732Z,10.68
2022-11-25T11:12:58.307Z,10.05
2022-11-25T11:15:28.409Z,10.35
2022-11-25T11:17:58.983Z,9.93
2022-11-25T11:20:33.085Z,9.95
2022-11-25T11:23:08.643Z,9.20
2022-11-25T11:25:39.746Z,9.70
2022-11-25T11:28:28.135Z,8.52
2022-11-25T11:31:00.880Z,8.63
2022-11-25T11:33:35.445Z,8.60
2022-11-25T11:36:31.864Z,8.60
2022-11-25T11:39:01.814Z,7.22
2022-11-25T11:41:38.859Z,8.30
2022-11-25T11:44:16.100Z,7.82
2022-11-25T11:46:52.344Z,7.80
2022-11-25T11:49:29.091Z,8.15
2022-11-25T11:52:07.015Z,7.72
2022-11-25T11:54:39.818Z,7.68
2022-11-25T11:57:13.910Z,8.23
2022-11-25T12:00:00.809Z,7.78
2022-11-25T12:02:34.186Z,7.85
2022-11-25T12:05:07.393Z,7.80
2022-11-25T12:07:42.998Z,7.90
2022-11-25T12:10:21.586Z,7.80
2022-11-25T12:13:11.658Z,7.60
2022-11-25T12:15:49.646Z,7.55
2022-11-25T12:18:20.740Z,8.13
2022-11-25T12:20:56.972Z,7.95
2022-11-25T12:23:29.595Z,7.93
2022-11-25T12:26:01.347Z,7.77
2022-11-25T12:28:32.696Z,7.97
2022-11-25T12:31:14.126Z,8.07
2022-11-25T12:33:55.387Z,7.35
2022-11-25T12:36:29.086Z,7.70
2022-11-25T12:39:06.382Z,7.80
2022-11-25T12:41:42.703Z,7.72
2022-11-25T12:44:17.314Z,7.93
2022-11-25T12:46:47.954Z,7.80
2022-11-25T12:49:24.177Z,7.70
2022-11-25T12:52:03.516Z,7.60
2022-11-25T12:54:59.442Z,8.75
2022-11-25T12:57:48.635Z,8.45
2022-11-25T13:00:43.397Z,7.18
2022-11-25T13:03:31.885Z,8.18
2022-11-25T13:06:20.830Z,8.40
2022-11-25T13:09:02.051Z,8.82
2022-11-25T13:11:36.844Z,8.07
2022-11-25T13:14:15.840Z,8.40
2022-11-25T13:16:47.765Z,8.48
2022-11-25T13:19:20.934Z,8.63
2022-11-25T13:22:03.461Z,9.20
2022-11-25T13:24:42.982Z,8.65
2022-11-25T13:27:31.095Z,8.70
2022-11-25T13:30:01.655Z,8.73
2022-11-25T13:32:34.326Z,8.65
2022-11-25T13:35:22.971Z,8.57
2022-11-25T13:37:53.056Z,8.43
2022-11-25T13:40:27.433Z,9.02
2022-11-25T13:42:57.961Z,9.05
2022-11-25T13:45:34.987Z,9.07
2022-11-25T13:48:07.472Z,9.65
2022-11-25T13:51:03.320Z,9.75
2022-11-25T13:53:50.246Z,10.15
2022-11-25T13:56:23.262Z,9.15
2022-11-25T13:59:11.771Z,9.23
2022-11-25T14:01:42.387Z,10.00
2022-11-25T14:04:13.295Z,9.80
2022-11-25T14:06:53.843Z,9.68
2022-11-25T14:09:28.124Z,9.73
2022-11-25T14:12:11.134Z,9.95
2022-11-25T14:14:49.905Z,9.87
2022-11-25T14:17:46.062Z,10.55
2022-11-25T14:20:19.133Z,9.00
2022-11-25T14:23:04.405Z,9.77
2022-11-25T14:25:54.244Z,9.70
2022-11-25T14:28:24.290Z,9.85
2022-11-25T14:30:54.755Z,10.23
2022-11-25T14:33:29.250Z,9.73
2022-11-25T14:36:01.550Z,10.25
2022-11-25T14:38:39.339Z,9.70
2022-11-25T14:41:11.580Z,10.60
2022-11-25T14:43:43.548Z,10.38
2022-11-25T14:46:17.876Z,9.45
2022-11-25T14:48:48.007Z,9.88
2022-11-25T14:51:19.746Z,9.60
2022-11-25T14:53:50.434Z,9.45
2022-11-25T14:56:24.545Z,9.43
2022-11-25T14:58:54.953Z,9.02
2022-11-25T15:01:25.070Z,9.05
2022-11-25T15:04:03.684Z,9.20
2022-11-25T15:06:39.908Z,9.40
2022-11-25T15:09:21.395Z,9.40
2022-11-25T15:11:53.553Z,9.63
2022-11-25T15:14:28.281Z,9.38
2022-11-25T15:17:01.407Z,9.18
2022-11-25T15:19:34.250Z,9.57
2022-11-25T15:24:56.457Z,10.20
2022-11-25T15:27:27.677Z,10.60
2022-11-25T15:29:57.987Z,10.90
2022-11-25T15:32:28.944Z,11.15
2022-11-25T15:35:02.715Z,12.02
2022-11-25T15:37:32.513Z,11.20
2022-11-25T15:40:41.365Z,11.73
2022-11-25T15:43:33.907Z,11.38
2022-11-25T15:46:07.970Z,11.90
2022-11-25T15:48:41.444Z,11.27
2022-11-25T15:51:32.124Z,11.23
2022-11-25T15:54:20.944Z,11.35
2022-11-25T15:56:53.106Z,11.25
2022-11-25T15:59:41.398Z,10.90
2022-11-25T16:02:45.344Z,11.18
2022-11-25T16:05:15.514Z,11.27
2022-11-25T16:07:54.605Z,10.90
2022-11-25T16:10:30.825Z,11.60
2022-11-25T16:13:22.508Z,10.90
2022-11-25T16:15:52.975Z,11.27
2022-11-25T16:18:42.611Z,11.45
2022-11-25T16:21:37.244Z,11.25
2022-11-25T16:24:06.847Z,11.07
2022-11-25T16:26:36.948Z,10.27
2022-11-25T16:29:34.908Z,10.80
2022-11-25T16:32:15.503Z,9.75
2022-11-25T16:34:45.544Z,10.48
2022-11-25T16:37:15.794Z,10.57
2022-11-25T16:39:45.419Z,10.70
2022-11-25T16:42:21.540Z,11.18
2022-11-25T16:44:52.921Z,10.63
2022-11-25T16:47:23.390Z,10.43
2022-11-25T16:49:58.839Z,10.07
2022-11-25T16:52:28.822Z,10.00
2022-11-25T16:54:58.883Z,10.20
2022-11-25T16:57:28.478Z,10.13
2022-11-25T17:00:01.666Z,9.57
2022-11-25T17:02:31.936Z,9.48
2022-11-25T17:05:01.991Z,10.10
2022-11-25T17:07:33.223Z,9.50
2022-11-25T17:10:03.485Z,9.02
2022-11-25T17:12:34.779Z,8.68
2022-11-25T17:15:06.717Z,8.25
2022-11-25T17:17:36.909Z,8.80
2022-11-25T17:20:07.991Z,8.55
2022-11-25T17:22:39.536Z,8.57
2022-11-25T17:25:11.165Z,8.68
2022-11-25T17:27:41.432Z,7.78
2022-11-25T17:30:31.708Z,7.65
2022-11-25T17:33:08.613Z,7.55
2022-11-25T17:35:38.567Z,6.97
2022-11-25T17:38:29.534Z,7.53
2022-11-25T17:40:59.512Z,7.78
2022-11-25T17:43:34.501Z,7.22
2022-11-25T17:46:04.928Z,7.30
2022-11-25T17:48:35.305Z,6.55
2022-11-25T17:51:07.597Z,6.55
2022-11-25T17:53:40.541Z,7.40
2022-11-25T17:56:30.390Z,6.70
2022-11-25T17:59:11.317Z,6.35
2022-11-25T18:01:41.512Z,6.55
2022-11-25T18:04:43.863Z,6.75
2022-11-25T18:07:13.529Z,6.00
2022-11-25T18:09:43.635Z,6.30
2022-11-25T18:12:20.256Z,5.88
2022-11-25T18:14:49.865Z,6.50
2022-11-25T18:17:19.659Z,5.68
2022-11-25T18:19:54.853Z,5.65
2022-11-25T18:22:25.742Z,5.65
2022-11-25T18:24:55.710Z,5.28
2022-11-25T18:27:28.253Z,6.22
2022-11-25T18:29:58.404Z,5.13
2022-11-25T18:32:28.248Z,5.70
2022-11-25T18:34:58.620Z,5.38
2022-11-25T18:37:28.743Z,4.70
2022-11-25T18:39:58.329Z,4.97
2022-11-25T18:42:28.603Z,4.97
2022-11-25T18:44:58.287Z,5.18
2022-11-25T18:47:28.282Z,4.55
2022-11-25T18:49:57.896Z,4.82
2022-11-25T18:52:27.839Z,4.63
2022-11-25T18:54:57.424Z,4.90
2022-11-25T18:57:27.367Z,4.50
2022-11-25T19:00:17.272Z,4.35
2022-11-25T19:02:47.509Z,4.57
2022-11-25T19:05:22.454Z,4.32
2022-11-25T19:07:57.303Z,4.35
2022-11-25T19:10:31.501Z,3.90
2022-11-25T19:13:03.352Z,4.00
2022-11-25T19:15:35.183Z,3.90
2022-11-25T19:18:06.301Z,3.90
2022-11-25T19:20:36.354Z,4.15
2022-11-25T19:23:25.928Z,3.95
2022-11-25T19:26:01.786Z,3.55
2022-11-25T19:28:32.070Z,4.05
2022-11-25T19:31:05.156Z,3.63
2022-11-25T19:33:37.608Z,3.85
2022-11-25T19:36:08.824Z,3.80
2022-11-25T19:38:38.805Z,3.60
2022-11-25T19:41:10.270Z,3.35
2022-11-25T19:43:40.438Z,3.55
2022-11-25T19:46:46.324Z,3.22
2022-11-25T19:49:21.058Z,3.40
2022-11-25T19:51:50.701Z,3.42
2022-11-25T19:54:20.452Z,3.60
2022-11-25T19:56:50.143Z,3.25
2022-11-25T19:59:19.719Z,3.03
2022-11-25T20:01:49.784Z,3.30
2022-11-25T20:04:22.749Z,3.30
2022-11-25T20:06:52.488Z,2.80
2022-11-25T20:09:22.468Z,3.03
2022-11-25T20:11:55.258Z,3.08
2022-11-25T20:14:25.839Z,3.08
2022-11-25T20:16:56.232Z,2.80
2022-11-25T20:19:28.030Z,2.78
2022-11-25T20:21:57.883Z,2.78
2022-11-25T20:24:28.175Z,2.40
2022-11-25T20:26:58.409Z,2.58
2022-11-25T20:29:30.696Z,2.70
2022-11-25T20:32:01.633Z,2.55
2022-11-25T20:34:34.219Z,2.75
2022-11-25T20:37:07.777Z,2.70
2022-11-25T20:39:37.817Z,2.65
2022-11-25T20:42:07.469Z,2.40
2022-11-25T20:44:37.709Z,2.40
2022-11-25T20:47:15.200Z,2.35
2022-11-25T20:49:45.928Z,2.17
2022-11-25T20:52:30.331Z,2.40
2022-11-25T20:55:00.197Z,2.13
2022-11-25T20:57:29.839Z,1.90
2022-11-25T20:59:59.811Z,1.90
2022-11-25T21:02:29.526Z,2.25
2022-11-25T21:04:59.145Z,2.10
2022-11-25T21:07:28.920Z,2.00
2022-11-25T21:09:59.332Z,1.90
2022-11-25T21:12:29.432Z,1.67
2022-11-25T21:14:59.555Z,1.98
2022-11-25T21:17:29.682Z,2.03
2022-11-25T21:19:59.744Z,2.05
2022-11-25T21:22:29.361Z,1.95
2022-11-25T21:24:58.846Z,1.60
2022-11-25T21:27:28.973Z,1.50
2022-11-25T21:29:59.495Z,2.00
2022-11-25T21:32:29.299Z,1.60
2022-11-25T21:34:59.475Z,2.13
2022-11-25T21:37:34.123Z,1.60
2022-11-25T21:40:06.222Z,1.70
2022-11-25T21:42:36.244Z,1.90
2022-11-25T21:45:06.781Z,1.60
2022-11-25T21:47:36.560Z,1.40
2022-11-25T21:50:16.768Z,1.40
2022-11-25T21:52:46.801Z,1.60
2022-11-25T21:55:17.045Z,1.55
2022-11-25T21:57:47.177Z,1.42
2022-11-25T22:00:25.407Z,1.30
2022-11-25T22:02:55.990Z,1.42
2022-11-25T22:05:29.248Z,1.30
2022-11-25T22:08:00.386Z,1.35
2022-11-25T22:10:30.362Z,1.38
2022-11-25T22:13:00.446Z,1.40
2022-11-25T22:15:30.043Z,1.17
2022-11-25T22:18:00.392Z,1.40
2022-11-25T22:20:34.492Z,1.33
2022-11-25T22:23:07.236Z,1.20
2022-11-25T22:25:36.832Z,1.30
2022-11-25T22:28:06.905Z,1.45
2022-11-25T22:30:36.694Z,1.17
2022-11-25T22:33:06.708Z,1.20
2022-11-25T22:35:36.293Z,1.40
2022-11-25T22:38:14.420Z,1.13
2022-11-25T22:40:51.181Z,1.30
2022-11-25T22:43:23.455Z,1.10
2022-11-25T22:45:53.108Z,1.20
2022-11-25T22:48:28.162Z,1.00
2022-11-25T22:50:58.117Z,1.10
2022-11-25T22:53:28.230Z,1.10
2022-11-25T22:55:58.970Z,1.10
2022-11-25T22:58:28.688Z,1.17
2022-11-25T23:00:58.772Z,1.08
2022-11-25T23:03:35.350Z,1.00
2022-11-25T23:06:06.613Z,1.13
2022-11-25T23:08:36.681Z,1.10
2022-11-25T23:11:06.732Z,1.00
2022-11-25T23:13:36.722Z,1.10
2022-11-25T23:16:07.119Z,1.10
2022-11-25T23:18:41.673Z,1.02
2022-11-25T23:21:23.144Z,0.95
2022-11-25T23:23:53.168Z,1.05
2022-11-25T23:26:22.654Z,1.10
2022-11-25T23:28:52.583Z,1.10
2022-11-25T23:31:22.795Z,1.10
2022-11-25T23:33:52.941Z,0.95
2022-11-25T23:36:26.886Z,0.95
2022-11-25T23:38:58.628Z,1.10
2022-11-25T23:41:33.575Z,0.88
2022-11-25T23:44:29.439Z,0.98
2022-11-25T23:47:06.723Z,1.10
2022-11-25T23:49:41.341Z,0.95
2022-11-25T23:52:16.161Z,1.10
2022-11-25T23:54:47.362Z,1.00
2022-11-25T23:57:22.289Z,1.00
2022-11-25T23:59:52.377Z,0.77
